sensor_id;sensor_type;location;lat;lon;timestamp;P1;durP1;ratioP1;P2;durP2;ratioP2
26620;SDS011;14253;44.840;10.444;2023-05-16T00:00:34;13.90;;;12.60;;
26620;SDS011;14253;44.840;10.444;2023-05-16T00:03:00;12.07;;;10.98;;
26620;SDS011;14253;44.840;10.444;2023-05-16T00:05:27;11.88;;;10.77;;
26620;SDS011;14253;44.840;10.444;2023-05-16T00:07:53;11.23;;;10.07;;
26620;SDS011;14253;44.840;10.444;2023-05-16T00:10:19;11.57;;;10.40;;
26620;SDS011;14253;44.840;10.444;2023-05-16T00:12:45;11.45;;;9.90;;
26620;SDS011;14253;44.840;10.444;2023-05-16T00:15:15;11.07;;;9.93;;
26620;SDS011;14253;44.840;10.444;2023-05-16T00:17:42;10.70;;;9.60;;
26620;SDS011;14253;44.840;10.444;2023-05-16T00:20:11;14.32;;;11.73;;
26620;SDS011;14253;44.840;10.444;2023-05-16T00:22:38;13.45;;;10.45;;
26620;SDS011;14253;44.840;10.444;2023-05-16T00:25:05;13.15;;;10.63;;
26620;SDS011;14253;44.840;10.444;2023-05-16T00:27:33;11.52;;;10.43;;
26620;SDS011;14253;44.840;10.444;2023-05-16T00:30:00;12.35;;;11.25;;
26620;SDS011;14253;44.840;10.444;2023-05-16T00:32:26;11.65;;;10.43;;
26620;SDS011;14253;44.840;10.444;2023-05-16T00:34:52;13.02;;;11.43;;
26620;SDS011;14253;44.840;10.444;2023-05-16T00:37:19;13.23;;;11.30;;
26620;SDS011;14253;44.840;10.444;2023-05-16T00:39:45;13.27;;;11.93;;
26620;SDS011;14253;44.840;10.444;2023-05-16T00:42:11;13.10;;;11.70;;
26620;SDS011;14253;44.840;10.444;2023-05-16T00:44:37;11.85;;;10.70;;
26620;SDS011;14253;44.840;10.444;2023-05-16T00:47:03;11.65;;;10.55;;
26620;SDS011;14253;44.840;10.444;2023-05-16T00:49:30;11.48;;;10.38;;
26620;SDS011;14253;44.840;10.444;2023-05-16T00:51:56;12.25;;;10.90;;
26620;SDS011;14253;44.840;10.444;2023-05-16T00:54:23;13.50;;;9.70;;
26620;SDS011;14253;44.840;10.444;2023-05-16T00:56:53;11.70;;;10.60;;
26620;SDS011;14253;44.840;10.444;2023-05-16T00:59:23;11.38;;;10.20;;
26620;SDS011;14253;44.840;10.444;2023-05-16T01:01:50;11.85;;;10.65;;
26620;SDS011;14253;44.840;10.444;2023-05-16T01:04:17;13.32;;;10.23;;
26620;SDS011;14253;44.840;10.444;2023-05-16T01:06:43;11.63;;;10.52;;
26620;SDS011;14253;44.840;10.444;2023-05-16T01:09:10;11.90;;;10.77;;
26620;SDS011;14253;44.840;10.444;2023-05-16T01:17:15;11.02;;;10.02;;
26620;SDS011;14253;44.840;10.444;2023-05-16T01:26:26;13.68;;;11.45;;
26620;SDS011;14253;44.840;10.444;2023-05-16T01:28:54;13.38;;;11.98;;
26620;SDS011;14253;44.840;10.444;2023-05-16T01:31:20;15.50;;;12.27;;
26620;SDS011;14253;44.840;10.444;2023-05-16T01:33:48;14.48;;;11.65;;
26620;SDS011;14253;44.840;10.444;2023-05-16T01:36:30;14.35;;;10.88;;
26620;SDS011;14253;44.840;10.444;2023-05-16T01:44:03;20.35;;;13.18;;
26620;SDS011;14253;44.840;10.444;2023-05-16T01:46:33;14.20;;;12.27;;
26620;SDS011;14253;44.840;10.444;2023-05-16T01:51:57;13.07;;;11.77;;
26620;SDS011;14253;44.840;10.444;2023-05-16T01:54:27;13.45;;;10.63;;
26620;SDS011;14253;44.840;10.444;2023-05-16T01:56:56;14.05;;;10.98;;
26620;SDS011;14253;44.840;10.444;2023-05-16T01:59:24;12.18;;;10.98;;
26620;SDS011;14253;44.840;10.444;2023-05-16T02:01:52;12.40;;;11.13;;
26620;SDS011;14253;44.840;10.444;2023-05-16T02:04:19;13.05;;;11.85;;
26620;SDS011;14253;44.840;10.444;2023-05-16T02:06:46;14.13;;;11.00;;
26620;SDS011;14253;44.840;10.444;2023-05-16T02:09:15;14.93;;;11.93;;
26620;SDS011;14253;44.840;10.444;2023-05-16T02:11:41;12.63;;;11.38;;
26620;SDS011;14253;44.840;10.444;2023-05-16T02:14:07;12.70;;;10.95;;
26620;SDS011;14253;44.840;10.444;2023-05-16T02:16:34;13.82;;;11.82;;
26620;SDS011;14253;44.840;10.444;2023-05-16T02:19:00;13.80;;;12.05;;
26620;SDS011;14253;44.840;10.444;2023-05-16T02:21:26;17.15;;;11.38;;
26620;SDS011;14253;44.840;10.444;2023-05-16T02:23:52;12.85;;;11.50;;
26620;SDS011;14253;44.840;10.444;2023-05-16T02:26:18;15.38;;;12.18;;
26620;SDS011;14253;44.840;10.444;2023-05-16T02:28:45;15.30;;;11.85;;
26620;SDS011;14253;44.840;10.444;2023-05-16T02:31:13;15.02;;;12.02;;
26620;SDS011;14253;44.840;10.444;2023-05-16T02:33:49;15.23;;;11.30;;
26620;SDS011;14253;44.840;10.444;2023-05-16T02:36:15;15.13;;;11.57;;
26620;SDS011;14253;44.840;10.444;2023-05-16T02:38:41;13.90;;;12.35;;
26620;SDS011;14253;44.840;10.444;2023-05-16T02:41:07;14.48;;;11.98;;
26620;SDS011;14253;44.840;10.444;2023-05-16T02:43:33;14.60;;;13.23;;
26620;SDS011;14253;44.840;10.444;2023-05-16T02:45:59;14.50;;;12.15;;
26620;SDS011;14253;44.840;10.444;2023-05-16T02:48:25;13.13;;;11.52;;
26620;SDS011;14253;44.840;10.444;2023-05-16T02:50:51;12.48;;;11.10;;
26620;SDS011;14253;44.840;10.444;2023-05-16T02:53:17;18.83;;;12.85;;
26620;SDS011;14253;44.840;10.444;2023-05-16T02:55:43;13.15;;;11.25;;
26620;SDS011;14253;44.840;10.444;2023-05-16T02:58:09;12.55;;;11.25;;
26620;SDS011;14253;44.840;10.444;2023-05-16T03:00:35;12.75;;;10.75;;
26620;SDS011;14253;44.840;10.444;2023-05-16T03:03:01;15.32;;;11.43;;
26620;SDS011;14253;44.840;10.444;2023-05-16T03:05:28;16.15;;;11.73;;
26620;SDS011;14253;44.840;10.444;2023-05-16T03:07:54;12.73;;;11.30;;
26620;SDS011;14253;44.840;10.444;2023-05-16T03:10:20;12.90;;;11.60;;
26620;SDS011;14253;44.840;10.444;2023-05-16T03:12:46;13.23;;;11.77;;
26620;SDS011;14253;44.840;10.444;2023-05-16T03:15:12;13.73;;;11.40;;
26620;SDS011;14253;44.840;10.444;2023-05-16T03:17:38;14.32;;;12.02;;
26620;SDS011;14253;44.840;10.444;2023-05-16T03:20:04;11.90;;;10.68;;
26620;SDS011;14253;44.840;10.444;2023-05-16T03:22:33;13.02;;;11.65;;
26620;SDS011;14253;44.840;10.444;2023-05-16T03:24:59;11.57;;;10.38;;
26620;SDS011;14253;44.840;10.444;2023-05-16T03:27:25;12.02;;;10.27;;
26620;SDS011;14253;44.840;10.444;2023-05-16T03:29:52;11.18;;;8.75;;
26620;SDS011;14253;44.840;10.444;2023-05-16T03:32:18;10.18;;;9.13;;
26620;SDS011;14253;44.840;10.444;2023-05-16T03:34:44;8.20;;;6.72;;
26620;SDS011;14253;44.840;10.444;2023-05-16T03:37:10;10.65;;;6.47;;
26620;SDS011;14253;44.840;10.444;2023-05-16T03:39:39;8.15;;;3.88;;
26620;SDS011;14253;44.840;10.444;2023-05-16T03:42:05;6.30;;;2.10;;
26620;SDS011;14253;44.840;10.444;2023-05-16T03:44:31;3.67;;;1.70;;
26620;SDS011;14253;44.840;10.444;2023-05-16T03:46:57;3.95;;;1.50;;
26620;SDS011;14253;44.840;10.444;2023-05-16T03:49:25;5.22;;;1.23;;
26620;SDS011;14253;44.840;10.444;2023-05-16T03:51:54;4.40;;;1.40;;
26620;SDS011;14253;44.840;10.444;2023-05-16T03:54:21;4.63;;;1.30;;
26620;SDS011;14253;44.840;10.444;2023-05-16T03:56:47;2.85;;;1.20;;
26620;SDS011;14253;44.840;10.444;2023-05-16T03:59:13;7.43;;;1.20;;
26620;SDS011;14253;44.840;10.444;2023-05-16T04:01:39;2.65;;;1.30;;
26620;SDS011;14253;44.840;10.444;2023-05-16T04:04:05;3.92;;;1.27;;
26620;SDS011;14253;44.840;10.444;2023-05-16T04:06:31;4.82;;;1.35;;
26620;SDS011;14253;44.840;10.444;2023-05-16T04:08:58;4.82;;;1.20;;
26620;SDS011;14253;44.840;10.444;2023-05-16T04:11:24;4.85;;;1.20;;
26620;SDS011;14253;44.840;10.444;2023-05-16T04:13:50;3.88;;;1.50;;
26620;SDS011;14253;44.840;10.444;2023-05-16T04:16:18;4.18;;;1.52;;
26620;SDS011;14253;44.840;10.444;2023-05-16T04:18:44;4.03;;;1.13;;
26620;SDS011;14253;44.840;10.444;2023-05-16T04:21:10;4.28;;;1.30;;
26620;SDS011;14253;44.840;10.444;2023-05-16T04:23:41;4.50;;;1.42;;
26620;SDS011;14253;44.840;10.444;2023-05-16T04:26:07;1.77;;;1.20;;
26620;SDS011;14253;44.840;10.444;2023-05-16T04:28:33;5.13;;;1.33;;
26620;SDS011;14253;44.840;10.444;2023-05-16T04:31:00;5.38;;;1.25;;
26620;SDS011;14253;44.840;10.444;2023-05-16T04:33:26;3.88;;;1.00;;
26620;SDS011;14253;44.840;10.444;2023-05-16T04:35:52;6.20;;;1.27;;
26620;SDS011;14253;44.840;10.444;2023-05-16T04:38:19;5.05;;;1.42;;
26620;SDS011;14253;44.840;10.444;2023-05-16T04:40:45;4.35;;;1.00;;
26620;SDS011;14253;44.840;10.444;2023-05-16T04:43:11;7.90;;;1.55;;
26620;SDS011;14253;44.840;10.444;2023-05-16T04:45:37;5.85;;;0.80;;
26620;SDS011;14253;44.840;10.444;2023-05-16T04:48:03;8.07;;;1.23;;
26620;SDS011;14253;44.840;10.444;2023-05-16T04:50:30;5.35;;;1.10;;
26620;SDS011;14253;44.840;10.444;2023-05-16T04:52:56;2.75;;;0.98;;
26620;SDS011;14253;44.840;10.444;2023-05-16T04:55:22;5.55;;;0.90;;
26620;SDS011;14253;44.840;10.444;2023-05-16T04:57:48;8.25;;;1.58;;
26620;SDS011;14253;44.840;10.444;2023-05-16T05:00:14;6.28;;;1.42;;
26620;SDS011;14253;44.840;10.444;2023-05-16T05:02:40;14.95;;;1.45;;
26620;SDS011;14253;44.840;10.444;2023-05-16T05:05:07;8.63;;;1.48;;
26620;SDS011;14253;44.840;10.444;2023-05-16T05:07:33;7.68;;;1.67;;
26620;SDS011;14253;44.840;10.444;2023-05-16T05:10:00;4.68;;;1.23;;
26620;SDS011;14253;44.840;10.444;2023-05-16T05:12:26;7.63;;;1.15;;
26620;SDS011;14253;44.840;10.444;2023-05-16T05:14:53;5.53;;;1.80;;
26620;SDS011;14253;44.840;10.444;2023-05-16T05:17:19;5.88;;;1.40;;
26620;SDS011;14253;44.840;10.444;2023-05-16T05:19:46;7.25;;;2.00;;
26620;SDS011;14253;44.840;10.444;2023-05-16T05:22:12;4.38;;;1.58;;
26620;SDS011;14253;44.840;10.444;2023-05-16T05:24:39;11.90;;;1.40;;
26620;SDS011;14253;44.840;10.444;2023-05-16T05:27:05;5.72;;;1.17;;
26620;SDS011;14253;44.840;10.444;2023-05-16T05:29:31;4.93;;;1.30;;
26620;SDS011;14253;44.840;10.444;2023-05-16T05:31:57;8.68;;;1.77;;
26620;SDS011;14253;44.840;10.444;2023-05-16T05:34:23;2.65;;;1.30;;
26620;SDS011;14253;44.840;10.444;2023-05-16T05:36:49;7.43;;;1.63;;
26620;SDS011;14253;44.840;10.444;2023-05-16T05:39:15;5.68;;;1.70;;
26620;SDS011;14253;44.840;10.444;2023-05-16T05:41:41;6.88;;;1.13;;
26620;SDS011;14253;44.840;10.444;2023-05-16T05:44:07;5.30;;;1.48;;
26620;SDS011;14253;44.840;10.444;2023-05-16T05:46:33;5.18;;;1.70;;
26620;SDS011;14253;44.840;10.444;2023-05-16T05:48:59;4.03;;;1.45;;
26620;SDS011;14253;44.840;10.444;2023-05-16T05:51:25;4.60;;;1.85;;
26620;SDS011;14253;44.840;10.444;2023-05-16T05:53:51;6.72;;;1.50;;
26620;SDS011;14253;44.840;10.444;2023-05-16T05:56:18;6.72;;;2.10;;
26620;SDS011;14253;44.840;10.444;2023-05-16T05:58:45;5.13;;;2.03;;
26620;SDS011;14253;44.840;10.444;2023-05-16T06:01:11;3.97;;;1.55;;
26620;SDS011;14253;44.840;10.444;2023-05-16T06:03:38;2.53;;;1.38;;
26620;SDS011;14253;44.840;10.444;2023-05-16T06:06:04;4.82;;;1.63;;
26620;SDS011;14253;44.840;10.444;2023-05-16T06:08:30;2.75;;;1.33;;
26620;SDS011;14253;44.840;10.444;2023-05-16T06:10:56;3.42;;;1.30;;
26620;SDS011;14253;44.840;10.444;2023-05-16T06:13:21;4.40;;;1.33;;
26620;SDS011;14253;44.840;10.444;2023-05-16T06:15:51;4.65;;;1.67;;
26620;SDS011;14253;44.840;10.444;2023-05-16T06:18:18;4.85;;;1.85;;
26620;SDS011;14253;44.840;10.444;2023-05-16T06:20:44;5.30;;;2.45;;
26620;SDS011;14253;44.840;10.444;2023-05-16T06:23:10;6.93;;;2.30;;
26620;SDS011;14253;44.840;10.444;2023-05-16T06:25:37;5.40;;;1.90;;
26620;SDS011;14253;44.840;10.444;2023-05-16T06:28:03;4.55;;;2.17;;
26620;SDS011;14253;44.840;10.444;2023-05-16T06:30:29;4.60;;;1.77;;
26620;SDS011;14253;44.840;10.444;2023-05-16T06:32:55;5.70;;;2.00;;
26620;SDS011;14253;44.840;10.444;2023-05-16T06:35:21;3.03;;;2.03;;
26620;SDS011;14253;44.840;10.444;2023-05-16T06:37:47;2.65;;;2.03;;
26620;SDS011;14253;44.840;10.444;2023-05-16T06:40:13;6.82;;;2.13;;
26620;SDS011;14253;44.840;10.444;2023-05-16T06:42:39;2.95;;;1.80;;
26620;SDS011;14253;44.840;10.444;2023-05-16T06:45:05;3.13;;;1.95;;
26620;SDS011;14253;44.840;10.444;2023-05-16T06:47:31;4.78;;;2.10;;
26620;SDS011;14253;44.840;10.444;2023-05-16T06:49:57;3.60;;;2.03;;
26620;SDS011;14253;44.840;10.444;2023-05-16T06:52:23;6.25;;;2.35;;
26620;SDS011;14253;44.840;10.444;2023-05-16T06:54:51;5.15;;;1.88;;
26620;SDS011;14253;44.840;10.444;2023-05-16T06:57:17;3.30;;;1.52;;
26620;SDS011;14253;44.840;10.444;2023-05-16T06:59:50;5.13;;;2.00;;
26620;SDS011;14253;44.840;10.444;2023-05-16T07:02:16;5.63;;;1.73;;
26620;SDS011;14253;44.840;10.444;2023-05-16T07:04:42;4.10;;;1.75;;
26620;SDS011;14253;44.840;10.444;2023-05-16T07:07:08;5.85;;;1.58;;
26620;SDS011;14253;44.840;10.444;2023-05-16T07:09:34;6.22;;;1.83;;
26620;SDS011;14253;44.840;10.444;2023-05-16T07:12:00;3.45;;;1.90;;
26620;SDS011;14253;44.840;10.444;2023-05-16T07:14:26;5.65;;;2.10;;
26620;SDS011;14253;44.840;10.444;2023-05-16T07:16:52;4.25;;;1.95;;
26620;SDS011;14253;44.840;10.444;2023-05-16T07:19:18;4.03;;;1.58;;
26620;SDS011;14253;44.840;10.444;2023-05-16T07:21:44;4.85;;;1.80;;
26620;SDS011;14253;44.840;10.444;2023-05-16T07:24:10;2.55;;;1.40;;
26620;SDS011;14253;44.840;10.444;2023-05-16T07:26:36;5.15;;;1.58;;
26620;SDS011;14253;44.840;10.444;2023-05-16T07:29:02;4.57;;;2.10;;
26620;SDS011;14253;44.840;10.444;2023-05-16T07:31:28;5.18;;;1.83;;
26620;SDS011;14253;44.840;10.444;2023-05-16T07:33:55;5.63;;;2.47;;
26620;SDS011;14253;44.840;10.444;2023-05-16T07:36:21;4.95;;;2.20;;
26620;SDS011;14253;44.840;10.444;2023-05-16T07:38:47;2.67;;;2.17;;
26620;SDS011;14253;44.840;10.444;2023-05-16T07:41:13;5.90;;;2.15;;
26620;SDS011;14253;44.840;10.444;2023-05-16T07:43:39;4.15;;;1.95;;
26620;SDS011;14253;44.840;10.444;2023-05-16T07:46:05;4.13;;;2.00;;
26620;SDS011;14253;44.840;10.444;2023-05-16T07:48:31;4.13;;;1.75;;
26620;SDS011;14253;44.840;10.444;2023-05-16T07:50:57;3.15;;;2.25;;
26620;SDS011;14253;44.840;10.444;2023-05-16T07:53:23;3.92;;;2.33;;
26620;SDS011;14253;44.840;10.444;2023-05-16T07:55:49;6.45;;;2.20;;
26620;SDS011;14253;44.840;10.444;2023-05-16T07:58:15;2.75;;;2.00;;
26620;SDS011;14253;44.840;10.444;2023-05-16T08:00:41;6.78;;;2.10;;
26620;SDS011;14253;44.840;10.444;2023-05-16T08:03:07;3.20;;;1.90;;
26620;SDS011;14253;44.840;10.444;2023-05-16T08:05:33;4.03;;;1.80;;
26620;SDS011;14253;44.840;10.444;2023-05-16T08:07:59;2.33;;;1.75;;
26620;SDS011;14253;44.840;10.444;2023-05-16T08:10:25;4.60;;;2.00;;
26620;SDS011;14253;44.840;10.444;2023-05-16T08:12:51;2.85;;;2.05;;
26620;SDS011;14253;44.840;10.444;2023-05-16T08:15:18;3.50;;;1.77;;
26620;SDS011;14253;44.840;10.444;2023-05-16T08:17:43;6.07;;;1.80;;
26620;SDS011;14253;44.840;10.444;2023-05-16T08:20:10;5.05;;;1.70;;
26620;SDS011;14253;44.840;10.444;2023-05-16T08:22:36;2.58;;;1.40;;
26620;SDS011;14253;44.840;10.444;2023-05-16T08:25:02;10.80;;;1.90;;
26620;SDS011;14253;44.840;10.444;2023-05-16T08:27:28;3.38;;;2.00;;
26620;SDS011;14253;44.840;10.444;2023-05-16T08:29:54;4.07;;;1.90;;
26620;SDS011;14253;44.840;10.444;2023-05-16T08:32:21;3.20;;;1.67;;
26620;SDS011;14253;44.840;10.444;2023-05-16T08:34:47;4.90;;;1.75;;
26620;SDS011;14253;44.840;10.444;2023-05-16T08:37:13;3.80;;;2.00;;
26620;SDS011;14253;44.840;10.444;2023-05-16T08:39:39;2.20;;;1.50;;
26620;SDS011;14253;44.840;10.444;2023-05-16T08:42:05;2.95;;;1.60;;
26620;SDS011;14253;44.840;10.444;2023-05-16T08:44:32;3.33;;;1.73;;
26620;SDS011;14253;44.840;10.444;2023-05-16T08:47:01;3.83;;;1.80;;
26620;SDS011;14253;44.840;10.444;2023-05-16T08:49:37;3.45;;;1.60;;
26620;SDS011;14253;44.840;10.444;2023-05-16T08:52:06;4.40;;;2.40;;
26620;SDS011;14253;44.840;10.444;2023-05-16T08:54:34;2.80;;;2.13;;
26620;SDS011;14253;44.840;10.444;2023-05-16T08:57:01;3.40;;;2.42;;
26620;SDS011;14253;44.840;10.444;2023-05-16T08:59:28;3.63;;;2.42;;
26620;SDS011;14253;44.840;10.444;2023-05-16T09:01:55;5.15;;;2.45;;
26620;SDS011;14253;44.840;10.444;2023-05-16T09:04:22;4.05;;;2.00;;
26620;SDS011;14253;44.840;10.444;2023-05-16T09:06:49;3.67;;;2.33;;
26620;SDS011;14253;44.840;10.444;2023-05-16T09:09:16;2.53;;;1.63;;
26620;SDS011;14253;44.840;10.444;2023-05-16T09:11:43;2.53;;;1.98;;
26620;SDS011;14253;44.840;10.444;2023-05-16T09:14:10;3.50;;;1.83;;
26620;SDS011;14253;44.840;10.444;2023-05-16T09:16:36;3.20;;;1.95;;
26620;SDS011;14253;44.840;10.444;2023-05-16T09:19:02;2.85;;;1.95;;
26620;SDS011;14253;44.840;10.444;2023-05-16T09:21:29;3.28;;;1.77;;
26620;SDS011;14253;44.840;10.444;2023-05-16T09:24:08;3.08;;;1.90;;
26620;SDS011;14253;44.840;10.444;2023-05-16T09:26:37;5.55;;;2.10;;
26620;SDS011;14253;44.840;10.444;2023-05-16T09:29:10;4.70;;;1.83;;
26620;SDS011;14253;44.840;10.444;2023-05-16T09:31:37;3.33;;;1.85;;
26620;SDS011;14253;44.840;10.444;2023-05-16T09:34:06;4.05;;;2.22;;
26620;SDS011;14253;44.840;10.444;2023-05-16T09:36:33;4.22;;;1.70;;
26620;SDS011;14253;44.840;10.444;2023-05-16T09:38:59;5.63;;;2.03;;
26620;SDS011;14253;44.840;10.444;2023-05-16T09:41:26;3.53;;;2.53;;
26620;SDS011;14253;44.840;10.444;2023-05-16T09:43:52;5.70;;;2.75;;
26620;SDS011;14253;44.840;10.444;2023-05-16T09:46:18;4.97;;;2.50;;
26620;SDS011;14253;44.840;10.444;2023-05-16T09:48:50;3.47;;;2.50;;
26620;SDS011;14253;44.840;10.444;2023-05-16T09:51:16;4.22;;;2.50;;
26620;SDS011;14253;44.840;10.444;2023-05-16T09:53:47;5.20;;;2.20;;
26620;SDS011;14253;44.840;10.444;2023-05-16T09:56:13;2.67;;;2.17;;
26620;SDS011;14253;44.840;10.444;2023-05-16T09:58:43;4.35;;;2.15;;
26620;SDS011;14253;44.840;10.444;2023-05-16T10:01:17;5.47;;;2.17;;
26620;SDS011;14253;44.840;10.444;2023-05-16T10:03:43;4.13;;;2.00;;
26620;SDS011;14253;44.840;10.444;2023-05-16T10:06:09;3.38;;;1.92;;
26620;SDS011;14253;44.840;10.444;2023-05-16T10:08:37;4.95;;;2.60;;
26620;SDS011;14253;44.840;10.444;2023-05-16T10:11:06;6.45;;;2.42;;
26620;SDS011;14253;44.840;10.444;2023-05-16T10:13:33;8.20;;;3.20;;
26620;SDS011;14253;44.840;10.444;2023-05-16T10:16:01;3.47;;;2.78;;
26620;SDS011;14253;44.840;10.444;2023-05-16T10:18:37;4.93;;;2.88;;
26620;SDS011;14253;44.840;10.444;2023-05-16T10:21:04;5.85;;;3.15;;
26620;SDS011;14253;44.840;10.444;2023-05-16T10:23:32;5.18;;;3.15;;
26620;SDS011;14253;44.840;10.444;2023-05-16T10:26:00;4.72;;;3.03;;
26620;SDS011;14253;44.840;10.444;2023-05-16T10:28:28;5.93;;;2.70;;
26620;SDS011;14253;44.840;10.444;2023-05-16T10:30:54;4.13;;;3.00;;
26620;SDS011;14253;44.840;10.444;2023-05-16T10:33:21;4.45;;;3.47;;
26620;SDS011;14253;44.840;10.444;2023-05-16T10:35:47;5.97;;;3.42;;
26620;SDS011;14253;44.840;10.444;2023-05-16T10:38:14;6.75;;;4.18;;
26620;SDS011;14253;44.840;10.444;2023-05-16T10:40:42;5.95;;;3.10;;
26620;SDS011;14253;44.840;10.444;2023-05-16T10:43:08;5.60;;;3.53;;
26620;SDS011;14253;44.840;10.444;2023-05-16T10:45:38;5.30;;;3.47;;
26620;SDS011;14253;44.840;10.444;2023-05-16T10:48:06;6.20;;;3.85;;
26620;SDS011;14253;44.840;10.444;2023-05-16T10:50:35;5.25;;;3.63;;
26620;SDS011;14253;44.840;10.444;2023-05-16T10:53:15;8.18;;;3.60;;
26620;SDS011;14253;44.840;10.444;2023-05-16T11:06:27;9.73;;;4.40;;
26620;SDS011;14253;44.840;10.444;2023-05-16T11:19:47;4.53;;;3.45;;
26620;SDS011;14253;44.840;10.444;2023-05-16T11:24:52;5.03;;;3.35;;
26620;SDS011;14253;44.840;10.444;2023-05-16T11:27:29;6.30;;;3.95;;
26620;SDS011;14253;44.840;10.444;2023-05-16T11:32:32;7.30;;;3.88;;
26620;SDS011;14253;44.840;10.444;2023-05-16T11:34:59;5.93;;;3.65;;
26620;SDS011;14253;44.840;10.444;2023-05-16T11:37:26;4.32;;;3.63;;
26620;SDS011;14253;44.840;10.444;2023-05-16T11:39:52;3.97;;;3.47;;
26620;SDS011;14253;44.840;10.444;2023-05-16T11:42:22;7.97;;;3.25;;
26620;SDS011;14253;44.840;10.444;2023-05-16T11:44:48;6.32;;;2.72;;
26620;SDS011;14253;44.840;10.444;2023-05-16T11:47:14;6.07;;;3.60;;
26620;SDS011;14253;44.840;10.444;2023-05-16T11:49:40;3.72;;;2.75;;
26620;SDS011;14253;44.840;10.444;2023-05-16T11:52:07;4.22;;;2.40;;
26620;SDS011;14253;44.840;10.444;2023-05-16T11:54:34;7.50;;;3.20;;
26620;SDS011;14253;44.840;10.444;2023-05-16T11:57:00;7.43;;;3.10;;
26620;SDS011;14253;44.840;10.444;2023-05-16T11:59:27;3.63;;;2.50;;
26620;SDS011;14253;44.840;10.444;2023-05-16T12:01:53;3.50;;;2.40;;
26620;SDS011;14253;44.840;10.444;2023-05-16T12:04:19;4.93;;;2.33;;
26620;SDS011;14253;44.840;10.444;2023-05-16T12:06:56;3.97;;;2.78;;
26620;SDS011;14253;44.840;10.444;2023-05-16T12:09:24;3.83;;;2.55;;
26620;SDS011;14253;44.840;10.444;2023-05-16T12:11:51;6.15;;;2.38;;
26620;SDS011;14253;44.840;10.444;2023-05-16T12:14:17;4.40;;;2.80;;
26620;SDS011;14253;44.840;10.444;2023-05-16T12:16:44;4.18;;;2.45;;
26620;SDS011;14253;44.840;10.444;2023-05-16T12:19:10;4.32;;;2.60;;
26620;SDS011;14253;44.840;10.444;2023-05-16T12:21:38;4.68;;;3.10;;
26620;SDS011;14253;44.840;10.444;2023-05-16T12:24:04;4.63;;;2.67;;
26620;SDS011;14253;44.840;10.444;2023-05-16T12:26:33;3.05;;;2.50;;
26620;SDS011;14253;44.840;10.444;2023-05-16T12:28:59;4.22;;;3.00;;
26620;SDS011;14253;44.840;10.444;2023-05-16T12:31:28;4.07;;;2.72;;
26620;SDS011;14253;44.840;10.444;2023-05-16T12:33:55;4.07;;;2.38;;
26620;SDS011;14253;44.840;10.444;2023-05-16T12:36:22;6.95;;;3.63;;
26620;SDS011;14253;44.840;10.444;2023-05-16T12:38:48;4.50;;;3.22;;
26620;SDS011;14253;44.840;10.444;2023-05-16T12:41:19;4.88;;;3.30;;
26620;SDS011;14253;44.840;10.444;2023-05-16T12:43:46;5.78;;;4.10;;
26620;SDS011;14253;44.840;10.444;2023-05-16T12:46:13;5.40;;;3.88;;
26620;SDS011;14253;44.840;10.444;2023-05-16T12:48:40;5.18;;;3.88;;
26620;SDS011;14253;44.840;10.444;2023-05-16T12:51:09;6.15;;;4.00;;
26620;SDS011;14253;44.840;10.444;2023-05-16T12:53:43;9.82;;;5.28;;
26620;SDS011;14253;44.840;10.444;2023-05-16T12:56:13;6.00;;;4.00;;
26620;SDS011;14253;44.840;10.444;2023-05-16T12:58:40;9.20;;;4.13;;
26620;SDS011;14253;44.840;10.444;2023-05-16T13:01:07;5.90;;;4.22;;
26620;SDS011;14253;44.840;10.444;2023-05-16T13:03:33;7.72;;;4.88;;
26620;SDS011;14253;44.840;10.444;2023-05-16T13:06:00;5.07;;;3.88;;
26620;SDS011;14253;44.840;10.444;2023-05-16T13:08:28;4.68;;;4.05;;
26620;SDS011;14253;44.840;10.444;2023-05-16T13:10:54;5.75;;;4.10;;
26620;SDS011;14253;44.840;10.444;2023-05-16T13:13:20;5.63;;;4.20;;
26620;SDS011;14253;44.840;10.444;2023-05-16T13:15:46;5.32;;;4.35;;
26620;SDS011;14253;44.840;10.444;2023-05-16T13:18:13;6.57;;;3.97;;
26620;SDS011;14253;44.840;10.444;2023-05-16T13:20:39;5.15;;;3.92;;
26620;SDS011;14253;44.840;10.444;2023-05-16T13:23:06;9.77;;;3.80;;
26620;SDS011;14253;44.840;10.444;2023-05-16T13:25:32;5.95;;;3.63;;
26620;SDS011;14253;44.840;10.444;2023-05-16T13:27:58;6.90;;;3.85;;
26620;SDS011;14253;44.840;10.444;2023-05-16T13:30:24;4.68;;;3.03;;
26620;SDS011;14253;44.840;10.444;2023-05-16T13:32:51;4.75;;;3.83;;
26620;SDS011;14253;44.840;10.444;2023-05-16T13:35:17;8.18;;;3.60;;
26620;SDS011;14253;44.840;10.444;2023-05-16T13:37:43;9.00;;;3.70;;
26620;SDS011;14253;44.840;10.444;2023-05-16T13:40:09;7.57;;;3.65;;
26620;SDS011;14253;44.840;10.444;2023-05-16T13:42:35;5.38;;;3.63;;
26620;SDS011;14253;44.840;10.444;2023-05-16T13:45:05;4.53;;;3.22;;
26620;SDS011;14253;44.840;10.444;2023-05-16T13:47:32;5.30;;;2.92;;
26620;SDS011;14253;44.840;10.444;2023-05-16T13:49:58;4.85;;;3.45;;
26620;SDS011;14253;44.840;10.444;2023-05-16T13:52:28;4.25;;;2.78;;
26620;SDS011;14253;44.840;10.444;2023-05-16T13:54:54;4.70;;;3.30;;
26620;SDS011;14253;44.840;10.444;2023-05-16T13:57:20;5.03;;;3.65;;
26620;SDS011;14253;44.840;10.444;2023-05-16T13:59:47;5.82;;;3.78;;
26620;SDS011;14253;44.840;10.444;2023-05-16T14:02:13;7.72;;;3.55;;
26620;SDS011;14253;44.840;10.444;2023-05-16T14:04:39;10.45;;;4.05;;
26620;SDS011;14253;44.840;10.444;2023-05-16T14:07:05;6.97;;;3.72;;
26620;SDS011;14253;44.840;10.444;2023-05-16T14:09:31;10.32;;;4.88;;
26620;SDS011;14253;44.840;10.444;2023-05-16T14:11:59;7.82;;;4.93;;
26620;SDS011;14253;44.840;10.444;2023-05-16T14:14:27;8.50;;;3.85;;
26620;SDS011;14253;44.840;10.444;2023-05-16T14:16:53;5.88;;;4.22;;
26620;SDS011;14253;44.840;10.444;2023-05-16T14:19:19;7.60;;;4.25;;
26620;SDS011;14253;44.840;10.444;2023-05-16T14:21:44;6.20;;;4.53;;
26620;SDS011;14253;44.840;10.444;2023-05-16T14:24:10;6.57;;;4.30;;
26620;SDS011;14253;44.840;10.444;2023-05-16T14:26:36;6.63;;;4.28;;
26620;SDS011;14253;44.840;10.444;2023-05-16T14:29:02;6.80;;;4.93;;
26620;SDS011;14253;44.840;10.444;2023-05-16T14:31:28;7.72;;;4.93;;
26620;SDS011;14253;44.840;10.444;2023-05-16T14:33:54;10.10;;;4.88;;
26620;SDS011;14253;44.840;10.444;2023-05-16T14:36:21;9.73;;;5.47;;
26620;SDS011;14253;44.840;10.444;2023-05-16T14:38:47;8.88;;;4.88;;
26620;SDS011;14253;44.840;10.444;2023-05-16T14:41:13;7.97;;;4.90;;
26620;SDS011;14253;44.840;10.444;2023-05-16T14:43:39;8.23;;;4.80;;
26620;SDS011;14253;44.840;10.444;2023-05-16T14:46:05;7.20;;;4.82;;
26620;SDS011;14253;44.840;10.444;2023-05-16T14:48:31;8.85;;;4.75;;
26620;SDS011;14253;44.840;10.444;2023-05-16T14:50:57;6.75;;;4.53;;
26620;SDS011;14253;44.840;10.444;2023-05-16T14:53:24;6.05;;;4.47;;
26620;SDS011;14253;44.840;10.444;2023-05-16T14:55:50;11.13;;;5.18;;
26620;SDS011;14253;44.840;10.444;2023-05-16T14:58:17;7.50;;;5.75;;
26620;SDS011;14253;44.840;10.444;2023-05-16T15:00:44;9.07;;;5.80;;
26620;SDS011;14253;44.840;10.444;2023-05-16T15:03:10;6.25;;;5.28;;
26620;SDS011;14253;44.840;10.444;2023-05-16T15:05:36;7.50;;;5.43;;
26620;SDS011;14253;44.840;10.444;2023-05-16T15:08:02;9.45;;;6.63;;
26620;SDS011;14253;44.840;10.444;2023-05-16T15:10:28;9.68;;;6.25;;
26620;SDS011;14253;44.840;10.444;2023-05-16T15:12:54;9.48;;;6.50;;